sensor_id;sensor_type;location;lat;lon;timestamp;pressure;altitude;pressure_sealevel;temperature;humidity
17950;BME280;9100;48.700;9.316;2023-05-10T00:00:42;97024.7;;;16.23;100
17950;BME280;9100;48.700;9.316;2023-05-10T00:01:42;97028.9;;;16.24;100
17950;BME280;9100;48.700;9.316;2023-05-10T00:02:43;97025.3;;;16.25;100
17950;BME280;9100;48.700;9.316;2023-05-10T00:03:43;97031.4;;;16.24;100
17950;BME280;9100;48.700;9.316;2023-05-10T00:04:42;97033.2;;;16.24;100
17950;BME280;9100;48.700;9.316;2023-05-10T00:04:49;97027.3;;;16.23;100
17950;BME280;9100;48.700;9.316;2023-05-10T00:05:43;97034;;;16.24;100
17950;BME280;9100;48.700;9.316;2023-05-10T00:06:43;97030.4;;;16.25;100
17950;BME280;9100;48.700;9.316;2023-05-10T00:07:43;97032;;;16.26;100
17950;BME280;9100;48.700;9.316;2023-05-10T00:08:43;97031.2;;;16.26;100
17950;BME280;9100;48.700;9.316;2023-05-10T00:09:42;97028.9;;;16.24;100
17950;BME280;9100;48.700;9.316;2023-05-10T00:09:48;97034;;;16.24;100
17950;BME280;9100;48.700;9.316;2023-05-10T00:10:42;97033;;;16.25;100
17950;BME280;9100;48.700;9.316;2023-05-10T00:11:42;97026.3;;;16.24;100
17950;BME280;9100;48.700;9.316;2023-05-10T00:12:42;97024.5;;;16.25;100
17950;BME280;9100;48.700;9.316;2023-05-10T00:13:42;97030.7;;;16.24;100
17950;BME280;9100;48.700;9.316;2023-05-10T00:14:42;97026.5;;;16.23;100
17950;BME280;9100;48.700;9.316;2023-05-10T00:14:48;97027.3;;;16.23;100
17950;BME280;9100;48.700;9.316;2023-05-10T00:15:43;97034;;;16.24;100
17950;BME280;9100;48.700;9.316;2023-05-10T00:16:43;97028.9;;;16.24;100
17950;BME280;9100;48.700;9.316;2023-05-10T00:17:42;97030.7;;;16.24;100
17950;BME280;9100;48.700;9.316;2023-05-10T00:18:43;97027.3;;;16.23;100
17950;BME280;9100;48.700;9.316;2023-05-10T00:19:42;97031.7;;;16.23;100
17950;BME280;9100;48.700;9.316;2023-05-10T00:19:48;97025.8;;;16.22;100
17950;BME280;9100;48.700;9.316;2023-05-10T00:20:43;97033.5;;;16.22;100
17950;BME280;9100;48.700;9.316;2023-05-10T00:21:42;97039.59999999999;;;16.21;100
17950;BME280;9100;48.700;9.316;2023-05-10T00:22:42;97030.3;;;16.2;100
17950;BME280;9100;48.700;9.316;2023-05-10T00:23:42;97037.90000000001;;;16.22;100
17950;BME280;9100;48.700;9.316;2023-05-10T00:24:43;97031.3;;;16.19;100
17950;BME280;9100;48.700;9.316;2023-05-10T00:24:48;97034.7;;;16.2;100
17950;BME280;9100;48.700;9.316;2023-05-10T00:25:43;97037.5;;;16.18;100
17950;BME280;9100;48.700;9.316;2023-05-10T00:26:43;97031.3;;;16.19;100
17950;BME280;9100;48.700;9.316;2023-05-10T00:27:43;97036;;;16.17;100
17950;BME280;9100;48.700;9.316;2023-05-10T00:28:43;97042.9;;;16.17;100
17950;BME280;9100;48.700;9.316;2023-05-10T00:29:43;97033.8;;;16.14;100
17950;BME280;9100;48.700;9.316;2023-05-10T00:29:48;97039;;;16.14;100
17950;BME280;9100;48.700;9.316;2023-05-10T00:30:43;97034.6;;;16.15;100
17950;BME280;9100;48.700;9.316;2023-05-10T00:31:43;97040;;;16.13;100
17950;BME280;9100;48.700;9.316;2023-05-10T00:32:43;97041;;;16.12;100
17950;BME280;9100;48.700;9.316;2023-05-10T00:33:43;97038.9;;;16.09;100
17950;BME280;9100;48.700;9.316;2023-05-10T00:34:43;97046.3;;;16.06;100
17950;BME280;9100;48.700;9.316;2023-05-10T00:34:48;97044.5;;;16.06;100
17950;BME280;9100;48.700;9.316;2023-05-10T00:35:43;97041.09999999999;;;16.06;100
17950;BME280;9100;48.700;9.316;2023-05-10T00:36:43;97047;;;16.01;100
17950;BME280;9100;48.700;9.316;2023-05-10T00:37:43;97051.59999999999;;;15.99;100
17950;BME280;9100;48.700;9.316;2023-05-10T00:38:43;97049.5;;;15.96;100
17950;BME280;9100;48.700;9.316;2023-05-10T00:39:42;97046.6;;;15.92;100
17950;BME280;9100;48.700;9.316;2023-05-10T00:39:48;97050.7;;;15.93;100
17950;BME280;9100;48.700;9.316;2023-05-10T00:40:43;97054.5;;;15.91;100
17950;BME280;9100;48.700;9.316;2023-05-10T00:41:43;97057.3;;;15.89;100
17950;BME280;9100;48.700;9.316;2023-05-10T00:42:42;97062.09999999999;;;15.86;100
17950;BME280;9100;48.700;9.316;2023-05-10T00:43:42;97064.9;;;15.84;100
17950;BME280;9100;48.700;9.316;2023-05-10T00:44:42;97066.2;;;15.82;100
17950;BME280;9100;48.700;9.316;2023-05-10T00:44:48;97067.2;;;15.81;100
17950;BME280;9100;48.700;9.316;2023-05-10T00:45:43;97066.2;;;15.82;100
17950;BME280;9100;48.700;9.316;2023-05-10T00:46:43;97067.4;;;15.79;100
17950;BME280;9100;48.700;9.316;2023-05-10T00:47:43;97070;;;15.79;100
17950;BME280;9100;48.700;9.316;2023-05-10T00:48:43;97067.1;;;15.76;100
17950;BME280;9100;48.700;9.316;2023-05-10T00:49:43;97074.3;;;15.74;100
17950;BME280;9100;48.700;9.316;2023-05-10T00:49:48;97071.1;;;15.72;100
17950;BME280;9100;48.700;9.316;2023-05-10T00:50:42;97072.7;;;15.73;100
17950;BME280;9100;48.700;9.316;2023-05-10T00:51:43;97070.3;;;15.71;100
17950;BME280;9100;48.700;9.316;2023-05-10T00:52:43;97074.7;;;15.71;100
17950;BME280;9100;48.700;9.316;2023-05-10T00:53:43;97071.3;;;15.7;100
17950;BME280;9100;48.700;9.316;2023-05-10T00:54:43;97074.1;;;15.69;100
17950;BME280;9100;48.700;9.316;2023-05-10T00:54:49;97074.1;;;15.69;100
17950;BME280;9100;48.700;9.316;2023-05-10T00:55:42;97074.7;;;15.71;100
17950;BME280;9100;48.700;9.316;2023-05-10T00:56:42;97071.1;;;15.72;100
17950;BME280;9100;48.700;9.316;2023-05-10T00:57:42;97074.7;;;15.71;100
17950;BME280;9100;48.700;9.316;2023-05-10T00:58:43;97079.8;;;15.71;100
17950;BME280;9100;48.700;9.316;2023-05-10T00:59:43;97077.5;;;15.69;100
17950;BME280;9100;48.700;9.316;2023-05-10T00:59:48;97084.2;;;15.7;100
17950;BME280;9100;48.700;9.316;2023-05-10T01:00:43;97091.2;;;15.7;100
17950;BME280;9100;48.700;9.316;2023-05-10T01:01:43;97085.40000000001;;;15.68;100
17950;BME280;9100;48.700;9.316;2023-05-10T01:02:43;97084.7;;;15.67;100
17950;BME280;9100;48.700;9.316;2023-05-10T01:03:43;97085.90000000001;;;15.65;100
17950;BME280;9100;48.700;9.316;2023-05-10T01:04:43;97084.1;;;15.65;100
17950;BME280;9100;48.700;9.316;2023-05-10T01:04:48;97080.7;;;15.65;100
17950;BME280;9100;48.700;9.316;2023-05-10T01:05:43;97082.3;;;15.66;100
17950;BME280;9100;48.700;9.316;2023-05-10T01:06:43;97081.7;;;15.64;100
17950;BME280;9100;48.700;9.316;2023-05-10T01:07:43;97096.2;;;15.65;100
17950;BME280;9100;48.700;9.316;2023-05-10T01:08:43;97091.5;;;15.62;100
17950;BME280;9100;48.700;9.316;2023-05-10T01:09:42;97095.1;;;15.61;100
17950;BME280;9100;48.700;9.316;2023-05-10T01:09:48;97095.9;;;15.61;100
17950;BME280;9100;48.700;9.316;2023-05-10T01:10:43;97089.9;;;15.61;100
17950;BME280;9100;48.700;9.316;2023-05-10T01:11:43;97088.09999999999;;;15.61;100
17950;BME280;9100;48.700;9.316;2023-05-10T01:12:43;97089.9;;;15.61;100
17950;BME280;9100;48.700;9.316;2023-05-10T01:13:43;97092;;;15.59;100
17950;BME280;9100;48.700;9.316;2023-05-10T01:14:43;97096.3;;;15.58;100
17950;BME280;9100;48.700;9.316;2023-05-10T01:14:48;97101.5;;;15.58;100
17950;BME280;9100;48.700;9.316;2023-05-10T01:15:42;97101.5;;;15.58;100
17950;BME280;9100;48.700;9.316;2023-05-10T01:16:42;97096.5;;;15.57;100
17950;BME280;9100;48.700;9.316;2023-05-10T01:17:43;97097.6;;;15.56;100
17950;BME280;9100;48.700;9.316;2023-05-10T01:18:43;97098;;;15.52;100
17950;BME280;9100;48.700;9.316;2023-05-10T01:19:42;97095.4;;;15.52;100
17950;BME280;9100;48.700;9.316;2023-05-10T01:19:49;97104.2;;;15.51;100
17950;BME280;9100;48.700;9.316;2023-05-10T01:20:43;97102.4;;;15.52;100
17950;BME280;9100;48.700;9.316;2023-05-10T01:21:43;97107.7;;;15.5;100
17950;BME280;9100;48.700;9.316;2023-05-10T01:22:50;97101.59999999999;;;15.51;100
17950;BME280;9100;48.700;9.316;2023-05-10T01:23:45;97112.90000000001;;;15.5;100
17950;BME280;9100;48.700;9.316;2023-05-10T01:24:49;97109.7;;;15.48;100
17950;BME280;9100;48.700;9.316;2023-05-10T01:25:02;97113.3;;;15.47;100
17950;BME280;9100;48.700;9.316;2023-05-10T01:25:49;97111.3;;;15.49;100
17950;BME280;9100;48.700;9.316;2023-05-10T01:26:49;97106.4;;;15.48;100
17950;BME280;9100;48.700;9.316;2023-05-10T01:27:53;97105.6;;;15.47;100
17950;BME280;9100;48.700;9.316;2023-05-10T01:28:51;97114.3;;;15.46;100
17950;BME280;9100;48.700;9.316;2023-05-10T01:29:47;97119.7;;;15.45;100
17950;BME280;9100;48.700;9.316;2023-05-10T01:29:58;97117.1;;;15.45;100
17950;BME280;9100;48.700;9.316;2023-05-10T01:32:01;97120.5;;;15.45;100
17950;BME280;9100;48.700;9.316;2023-05-10T01:32:43;97123;;;15.45;100
17950;BME280;9100;48.700;9.316;2023-05-10T01:33:43;97125.09999999999;;;15.43;100
17950;BME280;9100;48.700;9.316;2023-05-10T01:34:46;97131.2;;;15.42;100
17950;BME280;9100;48.700;9.316;2023-05-10T01:34:52;97123.5;;;15.42;100
17950;BME280;9100;48.700;9.316;2023-05-10T01:35:45;97127.59999999999;;;15.43;100
17950;BME280;9100;48.700;9.316;2023-05-10T01:36:43;97123.5;;;15.42;100
17950;BME280;9100;48.700;9.316;2023-05-10T01:37:45;97128.59999999999;;;15.42;100
17950;BME280;9100;48.700;9.316;2023-05-10T01:38:44;97127.09999999999;;;15.41;100
17950;BME280;9100;48.700;9.316;2023-05-10T01:39:44;97129.1;;;15.39;100
17950;BME280;9100;48.700;9.316;2023-05-10T01:39:49;97127.5;;;15.38;100
17950;BME280;9100;48.700;9.316;2023-05-10T01:40:46;97135.79999999999;;;15.4;100
17950;BME280;9100;48.700;9.316;2023-05-10T01:41:45;97135.2;;;15.38;100
17950;BME280;9100;48.700;9.316;2023-05-10T01:42:45;97127.8;;;15.37;100
17950;BME280;9100;48.700;9.316;2023-05-10T01:43:44;97132.1;;;15.36;100
17950;BME280;9100;48.700;9.316;2023-05-10T01:44:45;97132.9;;;15.37;100
17950;BME280;9100;48.700;9.316;2023-05-10T01:44:49;97143.2;;;15.37;100
17950;BME280;9100;48.700;9.316;2023-05-10T01:45:45;97129.5;;;15.36;100
17950;BME280;9100;48.700;9.316;2023-05-10T01:46:43;97143.4;;;15.35;100
17950;BME280;9100;48.700;9.316;2023-05-10T01:47:43;97141.8;;;15.34;100
17950;BME280;9100;48.700;9.316;2023-05-10T01:48:45;97136.7;;;15.34;100
17950;BME280;9100;48.700;9.316;2023-05-10T01:49:43;97144.7;;;15.33;100
17950;BME280;9100;48.700;9.316;2023-05-10T01:49:49;97145.4;;;15.33;100
17950;BME280;9100;48.700;9.316;2023-05-10T01:50:43;97139.5;;;15.33;100
17950;BME280;9100;48.700;9.316;2023-05-10T01:51:45;97139.5;;;15.33;100
17950;BME280;9100;48.700;9.316;2023-05-10T01:52:44;97142.3;;;15.31;100
17950;BME280;9100;48.700;9.316;2023-05-10T01:53:43;97144.1;;;15.31;100
17950;BME280;9100;48.700;9.316;2023-05-10T01:54:44;97154.6;;;15.29;100
17950;BME280;9100;48.700;9.316;2023-05-10T01:54:49;97144.3;;;15.29;100
17950;BME280;9100;48.700;9.316;2023-05-10T01:55:43;97147.6;;;15.3;100
17950;BME280;9100;48.700;9.316;2023-05-10T01:56:43;97145.9;;;15.3;100
17950;BME280;9100;48.700;9.316;2023-05-10T01:57:43;97144.3;;;15.29;100
17950;BME280;9100;48.700;9.316;2023-05-10T01:58:43;97151;;;15.3;100
17950;BME280;9100;48.700;9.316;2023-05-10T01:59:43;97149.2;;;15.31;100
17950;BME280;9100;48.700;9.316;2023-05-10T01:59:49;97157;;;15.31;100
17950;BME280;9100;48.700;9.316;2023-05-10T02:00:43;97148.40000000001;;;15.3;100
17950;BME280;9100;48.700;9.316;2023-05-10T02:01:42;97147.40000000001;;;15.31;100
17950;BME280;9100;48.700;9.316;2023-05-10T02:02:44;97152.59999999999;;;15.31;100
17950;BME280;9100;48.700;9.316;2023-05-10T02:03:42;97161.3;;;15.3;100
17950;BME280;9100;48.700;9.316;2023-05-10T02:04:42;97148.90000000001;;;15.27;100
17950;BME280;9100;48.700;9.316;2023-05-10T02:04:49;97163.3;;;15.28;100
17950;BME280;9100;48.700;9.316;2023-05-10T02:05:43;97159.2;;;15.27;100
17950;BME280;9100;48.700;9.316;2023-05-10T02:06:43;97154.6;;;15.29;100
17950;BME280;9100;48.700;9.316;2023-05-10T02:07:43;97156.6;;;15.27;100
17950;BME280;9100;48.700;9.316;2023-05-10T02:08:43;97150.7;;;15.27;100
17950;BME280;9100;48.700;9.316;2023-05-10T02:09:43;97163.8;;;15.25;100
17950;BME280;9100;48.700;9.316;2023-05-10T02:09:48;97152.70000000001;;;15.25;100
17950;BME280;9100;48.700;9.316;2023-05-10T02:10:43;97153.2;;;15.27;100
17950;BME280;9100;48.700;9.316;2023-05-10T02:11:43;97155;;;15.26;100
17950;BME280;9100;48.700;9.316;2023-05-10T02:12:43;97157.8;;;15.25;100
17950;BME280;9100;48.700;9.316;2023-05-10T02:13:43;97152.9;;;15.23;100
17950;BME280;9100;48.700;9.316;2023-05-10T02:14:43;97152.3;;;15.21;100
17950;BME280;9100;48.700;9.316;2023-05-10T02:14:48;97149.8;;;15.21;100
17950;BME280;9100;48.700;9.316;2023-05-10T02:15:43;97156.5;;;15.22;100
17950;BME280;9100;48.700;9.316;2023-05-10T02:16:43;97152.3;;;15.21;100
17950;BME280;9100;48.700;9.316;2023-05-10T02:17:43;97154.3;;;15.19;100
17950;BME280;9100;48.700;9.316;2023-05-10T02:18:42;97154.3;;;15.19;100
17950;BME280;9100;48.700;9.316;2023-05-10T02:19:43;97161.5;;;15.17;100
17950;BME280;9100;48.700;9.316;2023-05-10T02:19:49;97152;;;15.18;100
17950;BME280;9100;48.700;9.316;2023-05-10T02:20:43;97164.09999999999;;;15.17;100
17950;BME280;9100;48.700;9.316;2023-05-10T02:21:43;97158.1;;;15.17;100
17950;BME280;9100;48.700;9.316;2023-05-10T02:22:43;97159.90000000001;;;15.16;100
17950;BME280;9100;48.700;9.316;2023-05-10T02:23:43;97159.90000000001;;;15.16;100
17950;BME280;9100;48.700;9.316;2023-05-10T02:24:43;97162;;;15.14;100
17950;BME280;9100;48.700;9.316;2023-05-10T02:24:49;97160.2;;;15.15;100
17950;BME280;9100;48.700;9.316;2023-05-10T02:25:43;97160.40000000001;;;15.13;100
17950;BME280;9100;48.700;9.316;2023-05-10T02:26:43;97168.3;;;15.12;100
17950;BME280;9100;48.700;9.316;2023-05-10T02:27:43;97161.40000000001;;;15.12;100
17950;BME280;9100;48.700;9.316;2023-05-10T02:28:43;97162.40000000001;;;15.11;100
17950;BME280;9100;48.700;9.316;2023-05-10T02:29:43;97171.90000000001;;;15.11;100
17950;BME280;9100;48.700;9.316;2023-05-10T02:29:48;97171.1;;;15.1;100
17950;BME280;9100;48.700;9.316;2023-05-10T02:30:43;97167.5;;;15.11;100
17950;BME280;9100;48.700;9.316;2023-05-10T02:31:43;97170.1;;;15.11;100
17950;BME280;9100;48.700;9.316;2023-05-10T02:32:43;97171.90000000001;;;15.11;100
17950;BME280;9100;48.700;9.316;2023-05-10T02:33:43;97172.1;;;15.09;100
17950;BME280;9100;48.700;9.316;2023-05-10T02:34:43;97164.59999999999;;;15.08;100
17950;BME280;9100;48.700;9.316;2023-05-10T02:34:49;97164.4;;;15.09;100
17950;BME280;9100;48.700;9.316;2023-05-10T02:35:42;97172.90000000001;;;15.1;100
17950;BME280;9100;48.700;9.316;2023-05-10T02:36:42;97173.7;;;15.1;100
17950;BME280;9100;48.700;9.316;2023-05-10T02:37:43;97172.1;;;15.09;100
17950;BME280;9100;48.700;9.316;2023-05-10T02:38:43;97177.5;;;15.08;100
17950;BME280;9100;48.700;9.316;2023-05-10T02:39:43;97173.29999999999;;;15.07;100
17950;BME280;9100;48.700;9.316;2023-05-10T02:39:49;97170;;;15.06;100
17950;BME280;9100;48.700;9.316;2023-05-10T02:40:43;97164.59999999999;;;15.08;100
17950;BME280;9100;48.700;9.316;2023-05-10T02:41:43;97170.8;;;15.07;100
17950;BME280;9100;48.700;9.316;2023-05-10T02:42:43;97167.2;;;15.08;100
17950;BME280;9100;48.700;9.316;2023-05-10T02:43:43;97172.6;;;15.06;100
17950;BME280;9100;48.700;9.316;2023-05-10T02:44:43;97167.6;;;15.04;100
17950;BME280;9100;48.700;9.316;2023-05-10T02:44:49;97163.3;;;15.05;100
17950;BME280;9100;48.700;9.316;2023-05-10T02:45:43;97166.8;;;15.04;100
17950;BME280;9100;48.700;9.316;2023-05-10T02:46:43;97169;;;15.07;100
17950;BME280;9100;48.700;9.316;2023-05-10T02:47:43;97168.4;;;15.05;100
17950;BME280;9100;48.700;9.316;2023-05-10T02:48:43;97167.2;;;15.08;100
17950;BME280;9100;48.700;9.316;2023-05-10T02:49:43;97171.6;;;15.07;100
17950;BME280;9100;48.700;9.316;2023-05-10T02:49:48;97165.59999999999;;;15.07;100
17950;BME280;9100;48.700;9.316;2023-05-10T02:50:44;97173.1;;;15.08;100
17950;BME280;9100;48.700;9.316;2023-05-10T02:51:43;97164.4;;;15.09;100
17950;BME280;9100;48.700;9.316;2023-05-10T02:52:44;97167;;;15.09;100
17950;BME280;9100;48.700;9.316;2023-05-10T02:53:43;97161.8;;;15.09;100
17950;BME280;9100;48.700;9.316;2023-05-10T02:54:43;97167.6;;;15.04;100
17950;BME280;9100;48.700;9.316;2023-05-10T02:54:50;97163.3;;;15.05;100
17950;BME280;9100;48.700;9.316;2023-05-10T02:55:42;97170.8;;;15.07;100
17950;BME280;9100;48.700;9.316;2023-05-10T02:56:45;97170.8;;;15.07;100
17950;BME280;9100;48.700;9.316;2023-05-10T02:57:45;97166.4;;;15.07;100
17950;BME280;9100;48.700;9.316;2023-05-10T02:58:43;97173.1;;;15.08;100
17950;BME280;9100;48.700;9.316;2023-05-10T02:59:43;97169.5;;;15.09;100
17950;BME280;9100;48.700;9.316;2023-05-10T02:59:48;97173.7;;;15.1;100
17950;BME280;9100;48.700;9.316;2023-05-10T03:00:43;97170.1;;;15.11;100
17950;BME280;9100;48.700;9.316;2023-05-10T03:01:43;97175.8;;;15.13;100
17950;BME280;9100;48.700;9.316;2023-05-10T03:02:43;97171.5;;;15.14;100
17950;BME280;9100;48.700;9.316;2023-05-10T03:03:43;97172.2;;;15.14;100
17950;BME280;9100;48.700;9.316;2023-05-10T03:04:43;97169.9;;;15.13;100
17950;BME280;9100;48.700;9.316;2023-05-10T03:04:48;97164.70000000001;;;15.13;100
17950;BME280;9100;48.700;9.316;2023-05-10T03:05:43;97178.2;;;15.15;100
17950;BME280;9100;48.700;9.316;2023-05-10T03:06:43;97172.2;;;15.14;100
17950;BME280;9100;48.700;9.316;2023-05-10T03:07:43;97175.8;;;15.13;100
17950;BME280;9100;48.700;9.316;2023-05-10T03:08:43;97170.7;;;15.13;100
17950;BME280;9100;48.700;9.316;2023-05-10T03:09:43;97174.2;;;15.12;100
17950;BME280;9100;48.700;9.316;2023-05-10T03:09:48;97172.5;;;15.13;100
17950;BME280;9100;48.700;9.316;2023-05-10T03:10:45;97172.7;;;15.11;100
17950;BME280;9100;48.700;9.316;2023-05-10T03:11:45;97171.5;;;15.14;100
17950;BME280;9100;48.700;9.316;2023-05-10T03:12:46;97174.2;;;15.12;100
17950;BME280;9100;48.700;9.316;2023-05-10T03:13:44;97171.7;;;15.12;100
17950;BME280;9100;48.700;9.316;2023-05-10T03:14:45;97169.5;;;15.09;100
17950;BME280;9100;48.700;9.316;2023-05-10T03:14:49;97173.7;;;15.1;100
17950;BME280;9100;48.700;9.316;2023-05-10T03:15:47;97177.09999999999;;;15.11;100
17950;BME280;9100;48.700;9.316;2023-05-10T03:16:44;97172.1;;;15.09;100
17950;BME280;9100;48.700;9.316;2023-05-10T03:17:45;97174.7;;;15.09;100
17950;BME280;9100;48.700;9.316;2023-05-10T03:18:43;97176.5;;;15.09;100
17950;BME280;9100;48.700;9.316;2023-05-10T03:19:43;97174.90000000001;;;15.08;100
17950;BME280;9100;48.700;9.316;2023-05-10T03:19:51;97170;;;15.06;100
17950;BME280;9100;48.700;9.316;2023-05-10T03:20:43;97180.3;;;15.06;100
17950;BME280;9100;48.700;9.316;2023-05-10T03:21:44;97172;;;15.04;100
17950;BME280;9100;48.700;9.316;2023-05-10T03:22:44;97172;;;15.04;100
17950;BME280;9100;48.700;9.316;2023-05-10T03:23:43;97176.09999999999;;;15.05;100
17950;BME280;9100;48.700;9.316;2023-05-10T03:24:42;97168.8;;;15.02;100
17950;BME280;9100;48.700;9.316;2023-05-10T03:24:49;97178.9;;;15.03;100
17950;BME280;9100;48.700;9.316;2023-05-10T03:25:43;97172;;;15.04;100
17950;BME280;9100;48.700;9.316;2023-05-10T03:26:43;97178.7;;;15.05;100
17950;BME280;9100;48.700;9.316;2023-05-10T03:27:43;97187;;;15.07;100
17950;BME280;9100;48.700;9.316;2023-05-10T03:28:43;97179.8;;;15.09;100
17950;BME280;9100;48.700;9.316;2023-05-10T03:29:43;97181.9;;;15.07;100
17950;BME280;9100;48.700;9.316;2023-05-10T03:29:48;97181.9;;;15.07;100
17950;BME280;9100;48.700;9.316;2023-05-10T03:30:43;97180.8;;;15.08;100
17950;BME280;9100;48.700;9.316;2023-05-10T03:31:43;97183.4;;;15.08;100
17950;BME280;9100;48.700;9.316;2023-05-10T03:32:43;97187;;;15.07;100
17950;BME280;9100;48.700;9.316;2023-05-10T03:33:46;97188;;;15.06;100
17950;BME280;9100;48.700;9.316;2023-05-10T03:34:43;97180.7;;;15.03;100
17950;BME280;9100;48.700;9.316;2023-05-10T03:34:48;97183.8;;;15.05;100
17950;BME280;9100;48.700;9.316;2023-05-10T03:35:43;97183.8;;;15.05;100
17950;BME280;9100;48.700;9.316;2023-05-10T03:36:43;97184.6;;;15.05;100
17950;BME280;9100;48.700;9.316;2023-05-10T03:37:43;97185.40000000001;;;15.06;100
17950;BME280;9100;48.700;9.316;2023-05-10T03:38:43;97191.8;;;15.03;100
17950;BME280;9100;48.700;9.316;2023-05-10T03:39:43;97186.90000000001;;;15.02;100
17950;BME280;9100;48.700;9.316;2023-05-10T03:39:48;97186.90000000001;;;15.02;100
17950;BME280;9100;48.700;9.316;2023-05-10T03:40:43;97183.5;;;15.01;100
17950;BME280;9100;48.700;9.316;2023-05-10T03:41:43;97188.59999999999;;;15.01;100
17950;BME280;9100;48.700;9.316;2023-05-10T03:42:43;97194;;;15;100
17950;BME280;9100;48.700;9.316;2023-05-10T03:43:43;97195.8;;;14.99;100
17950;BME280;9100;48.700;9.316;2023-05-10T03:44:43;97191.7;;;14.98;100
17950;BME280;9100;48.700;9.316;2023-05-10T03:44:48;97195;;;14.99;100
17950;BME280;9100;48.700;9.316;2023-05-10T03:45:43;97199.1;;;15;100
17950;BME280;9100;48.700;9.316;2023-05-10T03:46:43;97196.6;;;15;100
17950;BME280;9100;48.700;9.316;2023-05-10T03:47:43;97194.2;;;14.98;100
17950;BME280;9100;48.700;9.316;2023-05-10T03:48:43;97189.9;;;14.99;100
17950;BME280;9100;48.700;9.316;2023-05-10T03:49:43;97197.6;;;14.99;100
17950;BME280;9100;48.700;9.316;2023-05-10T03:49:48;97198.6;;;14.98;100
17950;BME280;9100;48.700;9.316;2023-05-10T03:50:43;97201;;;14.99;100
17950;BME280;9100;48.700;9.316;2023-05-10T03:51:43;97196.6;;;15;100
17950;BME280;9100;48.700;9.316;2023-05-10T03:52:43;97194;;;15;100
17950;BME280;9100;48.700;9.316;2023-05-10T03:53:43;97200.2;;;14.99;100
17950;BME280;9100;48.700;9.316;2023-05-10T03:54:43;97193.4;;;14.98;100
17950;BME280;9100;48.700;9.316;2023-05-10T03:54:49;97196.6;;;15;100
17950;BME280;9100;48.700;9.316;2023-05-10T03:55:43;97197.40000000001;;;15;100
17950;BME280;9100;48.700;9.316;2023-05-10T03:56:43;97184.7;;;14.99;100
17950;BME280;9100;48.700;9.316;2023-05-10T03:57:43;97197.6;;;14.99;100
17950;BME280;9100;48.700;9.316;2023-05-10T03:58:43;97187.5;;;14.97;100
17950;BME280;9100;48.700;9.316;2023-05-10T03:59:43;97190.3;;;14.96;100
17950;BME280;9100;48.700;9.316;2023-05-10T03:59:49;97189.3;;;14.97;100
17950;BME280;9100;48.700;9.316;2023-05-10T04:00:43;97197;;;14.97;100
17950;BME280;9100;48.700;9.316;2023-05-10T04:01:43;97191.9;;;14.97;100
17950;BME280;9100;48.700;9.316;2023-05-10T04:02:43;97194.2;;;14.98;100
17950;BME280;9100;48.700;9.316;2023-05-10T04:03:43;97196.2;;;14.96;100
17950;BME280;9100;48.700;9.316;2023-05-10T04:04:43;97194.7;;;14.95;100
17950;BME280;9100;48.700;9.316;2023-05-10T04:04:49;97199;;;14.95;100
17950;BME280;9100;48.700;9.316;2023-05-10T04:05:43;97195.5;;;14.96;100
17950;BME280;9100;48.700;9.316;2023-05-10T04:06:43;97193.7;;;14.96;100
17950;BME280;9100;48.700;9.316;2023-05-10T04:07:43;97202.20000000001;;;14.97;100
17950;BME280;9100;48.700;9.316;2023-05-10T04:08:43;97199.59999999999;;;14.97;100
17950;BME280;9100;48.700;9.316;2023-05-10T04:09:43;97199;;;14.95;100
17950;BME280;9100;48.700;9.316;2023-05-10T04:09:49;97203.4;;;14.94;100
17950;BME280;9100;48.700;9.316;2023-05-10T04:10:43;97203.4;;;14.94;100
17950;BME280;9100;48.700;9.316;2023-05-10T04:11:43;97206.2;;;14.93;100
17950;BME280;9100;48.700;9.316;2023-05-10T04:12:43;97205.4;;;14.92;100
17950;BME280;9100;48.700;9.316;2023-05-10T04:13:43;97210.6;;;14.92;100
17950;BME280;9100;48.700;9.316;2023-05-10T04:14:43;97199.5;;;14.92;100
17950;BME280;9100;48.700;9.316;2023-05-10T04:14:49;97202.3;;;14.9;100
17950;BME280;9100;48.700;9.316;2023-05-10T04:15:43;97210.6;;;14.92;100
17950;BME280;9100;48.700;9.316;2023-05-10T04:16:43;97206.4;;;14.91;100
17950;BME280;9100;48.700;9.316;2023-05-10T04:17:43;97210.79999999999;;;14.91;100
17950;BME280;9100;48.700;9.316;2023-05-10T04:18:43;97205.8;;;14.89;100
17950;BME280;9100;48.700;9.316;2023-05-10T04:19:43;97207;;;14.87;100
17950;BME280;9100;48.700;9.316;2023-05-10T04:19:48;97202.70000000001;;;14.87;100
17950;BME280;9100;48.700;9.316;2023-05-10T04:20:43;97206;;;14.88;100
17950;BME280;9100;48.700;9.316;2023-05-10T04:21:43;97196.8;;;14.87;100
17950;BME280;9100;48.700;9.316;2023-05-10T04:22:43;97201.9;;;14.87;100
17950;BME280;9100;48.700;9.316;2023-05-10T04:23:43;97197;;;14.85;100
17950;BME280;9100;48.700;9.316;2023-05-10T04:24:43;97197.2;;;14.84;100
17950;BME280;9100;48.700;9.316;2023-05-10T04:24:49;97197.2;;;14.84;100
17950;BME280;9100;48.700;9.316;2023-05-10T04:25:43;97198.2;;;14.83;100
17950;BME280;9100;48.700;9.316;2023-05-10T04:26:43;97194.6;;;14.84;100
17950;BME280;9100;48.700;9.316;2023-05-10T04:27:43;97195.6;;;14.83;100
17950;BME280;9100;48.700;9.316;2023-05-10T04:28:43;97192.2;;;14.82;100
17950;BME280;9100;48.700;9.316;2023-05-10T04:29:43;97190.9;;;14.8;100
17950;BME280;9100;48.700;9.316;2023-05-10T04:29:48;97189.09999999999;;;14.8;100
17950;BME280;9100;48.700;9.316;2023-05-10T04:30:43;97192.5;;;14.81;100
17950;BME280;9100;48.700;9.316;2023-05-10T04:31:43;97197.6;;;14.81;100
17950;BME280;9100;48.700;9.316;2023-05-10T04:32:43;97202;;;14.8;100
17950;BME280;9100;48.700;9.316;2023-05-10T04:33:43;97202;;;14.8;100
17950;BME280;9100;48.700;9.316;2023-05-10T04:34:43;97204;;;14.78;100
17950;BME280;9100;48.700;9.316;2023-05-10T04:34:48;97204;;;14.78;100
17950;BME280;9100;48.700;9.316;2023-05-10T04:35:43;97207.3;;;14.79;100
17950;BME280;9100;48.700;9.316;2023-05-10T04:36:43;97204.8;;;14.79;100